Time,TemperatureF,DewpointF,PressureIn,WindDirection,WindDirectionDegrees,WindSpeedMPH,WindSpeedGustMPH,Humidity,HourlyPrecipIn,Conditions,Clouds,dailyrainin,SoftwareType,DateUTC
2013-07-22 00:02:00,73.8,73.2,29.74,West,270,0.0,-999.0,98,-99.99,,,0.00,Acu-Link.com,2013-07-22 04:02:00,
2013-07-22 00:17:00,73.8,73.2,29.74,West,270,0.0,-999.0,98,-99.99,,,0.00,Acu-Link.com,2013-07-22 04:17:00,
2013-07-22 00:32:00,73.8,73.2,29.74,West,270,0.0,-999.0,98,-99.99,,,0.00,Acu-Link.com,2013-07-22 04:32:00,
2013-07-22 00:47:00,73.6,73.0,29.73,SE,135,0.0,-999.0,98,-99.99,,,0.00,Acu-Link.com,2013-07-22 04:47:00,
2013-07-22 01:02:00,73.6,73.0,29.74,WNW,292,0.0,-999.0,98,-99.99,,,0.00,Acu-Link.com,2013-07-22 05:02:00,
2013-07-22 01:18:00,73.4,72.8,29.74,North,0,0.0,-999.0,98,-99.99,,,0.00,Acu-Link.com,2013-07-22 05:18:00,
2013-07-22 01:33:00,73.0,72.4,29.73,WNW,292,0.0,-999.0,98,-99.99,,,0.00,Acu-Link.com,2013-07-22 05:33:00,
2013-07-22 01:48:00,73.0,72.4,29.72,West,270,0.0,-999.0,98,-99.99,,,0.00,Acu-Link.com,2013-07-22 05:48:00,
2013-07-22 02:04:00,72.9,72.3,29.71,West,270,0.0,-999.0,98,-99.99,,,0.00,Acu-Link.com,2013-07-22 06:04:00,
2013-07-22 02:19:00,73.2,72.6,29.70,SSE,157,0.0,-999.0,98,-99.99,,,0.00,Acu-Link.com,2013-07-22 06:19:00,
2013-07-22 02:34:00,72.9,72.3,29.70,WNW,292,0.0,-999.0,98,-99.99,,,0.00,Acu-Link.com,2013-07-22 06:34:00,
2013-07-22 02:50:00,72.9,72.3,29.70,WSW,247,0.0,-999.0,98,-99.99,,,0.00,Acu-Link.com,2013-07-22 06:50:00,
2013-07-22 03:05:00,72.9,72.3,29.69,WNW,292,0.0,-999.0,98,-99.99,,,0.00,Acu-Link.com,2013-07-22 07:05:00,
2013-07-22 03:20:00,73.0,72.4,29.67,SW,225,0.0,-999.0,98,-99.99,,,0.00,Acu-Link.com,2013-07-22 07:20:00,
2013-07-22 03:35:00,73.0,72.4,29.67,WSW,247,0.0,-999.0,98,-99.99,,,0.00,Acu-Link.com,2013-07-22 07:35:00,
2013-07-22 03:51:00,73.0,72.4,29.67,South,180,0.0,-999.0,98,-99.99,,,0.00,Acu-Link.com,2013-07-22 07:51:00,
2013-07-22 04:06:00,72.9,72.3,29.67,NE,45,0.0,-999.0,98,-99.99,,,0.00,Acu-Link.com,2013-07-22 08:06:00,
2013-07-22 04:21:00,72.9,72.3,29.67,WNW,292,0.0,-999.0,98,-99.99,,,0.00,Acu-Link.com,2013-07-22 08:21:00,
2013-07-22 04:36:00,72.9,72.3,29.66,South,180,0.0,-999.0,98,-99.99,,,0.00,Acu-Link.com,2013-07-22 08:36:00,
2013-07-22 04:51:00,72.7,72.1,29.66,WSW,247,0.0,-999.0,98,-99.99,,,0.00,Acu-Link.com,2013-07-22 08:51:00,
2013-07-22 05:07:00,72.5,71.9,29.66,SSW,202,0.0,-999.0,98,-99.99,,,0.00,Acu-Link.com,2013-07-22 09:07:00,
2013-07-22 05:22:00,72.1,71.5,29.67,ESE,112,0.0,-999.0,98,-99.99,,,0.00,Acu-Link.com,2013-07-22 09:22:00,
2013-07-22 05:37:00,71.8,71.2,29.67,NW,315,0.0,-999.0,98,-99.99,,,0.00,Acu-Link.com,2013-07-22 09:37:00,
2013-07-22 05:52:00,71.8,71.2,29.69,SSW,202,0.0,-999.0,98,-99.99,,,0.00,Acu-Link.com,2013-07-22 09:52:00,
2013-07-22 06:08:00,71.8,71.2,29.70,ESE,112,0.0,-999.0,98,-99.99,,,0.00,Acu-Link.com,2013-07-22 10:08:00,
2013-07-22 06:23:00,72.0,71.4,29.71,SE,135,0.0,-999.0,98,-99.99,,,0.00,Acu-Link.com,2013-07-22 10:23:00,
2013-07-22 06:38:00,72.1,71.5,29.70,ESE,112,0.0,-999.0,98,-99.99,,,0.00,Acu-Link.com,2013-07-22 10:38:00,
2013-07-22 06:54:00,72.3,71.7,29.72,South,180,0.0,-999.0,98,-99.99,,,0.00,Acu-Link.com,2013-07-22 10:54:00,
2013-07-22 07:09:00,72.3,71.7,29.71,South,180,0.0,-999.0,98,-99.99,,,0.00,Acu-Link.com,2013-07-22 11:09:00,
2013-07-22 07:24:00,72.5,71.9,29.72,SSW,202,0.0,-999.0,98,-99.99,,,0.00,Acu-Link.com,2013-07-22 11:24:00,
2013-07-22 07:39:00,72.9,72.3,29.72,West,270,2.2,-999.0,98,-99.99,,,0.00,Acu-Link.com,2013-07-22 11:39:00,
2013-07-22 07:55:00,72.9,72.3,29.72,SSW,202,0.0,-999.0,98,-99.99,,,0.00,Acu-Link.com,2013-07-22 11:55:00,
2013-07-22 08:10:00,73.2,72.6,29.72,SW,225,0.0,-999.0,98,-99.99,,,0.00,Acu-Link.com,2013-07-22 12:10:00,
2013-07-22 08:25:00,73.8,73.2,29.73,SW,225,0.0,-999.0,98,-99.99,,,0.00,Acu-Link.com,2013-07-22 12:25:00,
2013-07-22 08:40:00,73.6,73.0,29.73,SSW,202,0.0,-999.0,98,-99.99,,,0.00,Acu-Link.com,2013-07-22 12:40:00,
2013-07-22 08:56:00,74.5,73.9,29.73,SSW,202,0.0,-999.0,98,-99.99,,,0.00,Acu-Link.com,2013-07-22 12:56:00,
2013-07-22 09:11:00,75.6,75.0,29.74,SW,225,0.0,-999.0,98,-99.99,,,0.00,Acu-Link.com,2013-07-22 13:11:00,
2013-07-22 09:26:00,76.6,76.0,29.74,ESE,112,2.7,-999.0,98,-99.99,,,0.00,Acu-Link.com,2013-07-22 13:26:00,
2013-07-22 09:41:00,77.9,77.3,29.73,West,270,0.0,-999.0,98,-99.99,,,0.00,Acu-Link.com,2013-07-22 13:41:00,
2013-07-22 09:56:00,79.9,79.3,29.73,NNE,22,0.0,-999.0,98,-99.99,,,0.00,Acu-Link.com,2013-07-22 13:56:00,
2013-07-22 10:12:00,80.8,80.2,29.72,SSW,202,0.0,-999.0,98,-99.99,,,0.00,Acu-Link.com,2013-07-22 14:12:00,
2013-07-22 10:27:00,81.1,80.5,29.73,ENE,67,0.0,-999.0,98,-99.99,,,0.00,Acu-Link.com,2013-07-22 14:27:00,
2013-07-22 10:42:00,81.9,81.3,29.74,East,90,2.2,-999.0,98,-99.99,,,0.00,Acu-Link.com,2013-07-22 14:42:00,
2013-07-22 10:58:00,82.6,82.0,29.74,NW,315,2.2,-999.0,98,-99.99,,,0.00,Acu-Link.com,2013-07-22 14:58:00,
2013-07-22 11:13:00,83.8,83.2,29.73,NNE,22,2.2,-999.0,98,-99.99,,,0.00,Acu-Link.com,2013-07-22 15:13:00,
2013-07-22 11:28:00,87.6,87.0,29.73,South,180,0.0,-999.0,98,-99.99,,,0.00,Acu-Link.com,2013-07-22 15:28:00,
2013-07-22 11:43:00,90.3,89.7,29.72,SSE,157,2.7,-999.0,98,-99.99,,,0.00,Acu-Link.com,2013-07-22 15:43:00,
2013-07-22 11:58:00,84.6,84.0,29.72,NNE,22,0.0,-999.0,98,-99.99,,,0.00,Acu-Link.com,2013-07-22 15:58:00,
2013-07-22 12:14:00,84.6,84.0,29.71,SSW,202,0.0,-999.0,98,-99.99,,,0.00,Acu-Link.com,2013-07-22 16:14:00,
2013-07-22 12:29:00,85.5,84.9,29.71,NE,45,3.2,-999.0,98,-99.99,,,0.00,Acu-Link.com,2013-07-22 16:29:00,
2013-07-22 12:44:00,86.4,85.8,29.70,ESE,112,2.2,-999.0,98,-99.99,,,0.00,Acu-Link.com,2013-07-22 16:44:00,
2013-07-22 12:59:00,86.4,85.8,29.69,ESE,112,2.2,-999.0,98,-99.99,,,0.00,Acu-Link.com,2013-07-22 16:59:00,
2013-07-22 13:14:00,85.6,85.0,29.67,NNW,337,2.7,-999.0,98,-99.99,,,0.00,Acu-Link.com,2013-07-22 17:14:00,
2013-07-22 13:30:00,84.0,83.4,29.68,SE,135,0.0,-999.0,98,-99.99,,,0.00,Acu-Link.com,2013-07-22 17:30:00,
2013-07-22 13:45:00,84.0,83.4,29.67,NW,315,0.0,-999.0,98,-99.99,,,0.00,Acu-Link.com,2013-07-22 17:45:00,
2013-07-22 14:15:00,81.0,80.4,29.67,ESE,112,1.7,-999.0,98,-99.99,,,0.00,Acu-Link.com,2013-07-22 18:15:00,
2013-07-22 15:01:00,75.0,74.4,29.66,ESE,112,2.7,-999.0,98,-99.99,,,0.50,Acu-Link.com,2013-07-22 19:01:00,
2013-07-22 15:16:00,74.1,73.5,29.67,SW,225,0.0,-999.0,98,-99.99,,,0.50,Acu-Link.com,2013-07-22 19:16:00,
2013-07-22 15:31:00,73.9,73.3,29.67,WSW,247,0.0,-999.0,98,-99.99,,,0.52,Acu-Link.com,2013-07-22 19:31:00,
2013-07-22 15:46:00,73.9,73.3,29.66,SW,225,0.0,-999.0,98,-99.99,,,0.56,Acu-Link.com,2013-07-22 19:46:00,
2013-07-22 16:17:00,76.6,76.0,29.65,SSW,202,0.0,-999.0,98,-99.99,,,0.56,Acu-Link.com,2013-07-22 20:17:00,
2013-07-22 16:32:00,78.3,77.7,29.64,SE,135,2.2,-999.0,98,-99.99,,,0.56,Acu-Link.com,2013-07-22 20:32:00,
2013-07-22 16:47:00,78.6,78.0,29.63,NE,45,1.1,-999.0,98,-99.99,,,0.56,Acu-Link.com,2013-07-22 20:47:00,
2013-07-22 17:02:00,79.5,78.9,29.64,ESE,112,3.2,-999.0,98,-99.99,,,0.56,Acu-Link.com,2013-07-22 21:02:00,
2013-07-22 17:18:00,79.7,79.1,29.63,SE,135,3.7,-999.0,98,-99.99,,,0.56,Acu-Link.com,2013-07-22 21:18:00,
2013-07-22 17:33:00,79.7,79.1,29.63,ESE,112,1.7,-999.0,98,-99.99,,,0.56,Acu-Link.com,2013-07-22 21:33:00,
2013-07-22 17:48:00,79.2,78.6,29.62,SE,135,0.0,-999.0,98,-99.99,,,0.56,Acu-Link.com,2013-07-22 21:48:00,
2013-07-22 18:03:00,78.8,78.2,29.62,ENE,67,1.7,-999.0,98,-99.99,,,0.56,Acu-Link.com,2013-07-22 22:03:00,
2013-07-22 18:19:00,78.8,78.2,29.61,South,180,0.0,-999.0,98,-99.99,,,0.56,Acu-Link.com,2013-07-22 22:19:00,
2013-07-22 18:34:00,79.3,78.7,29.59,SW,225,1.1,-999.0,98,-99.99,,,0.56,Acu-Link.com,2013-07-22 22:34:00,
2013-07-22 18:49:00,78.8,78.2,29.59,ENE,67,1.1,-999.0,98,-99.99,,,0.56,Acu-Link.com,2013-07-22 22:49:00,
2013-07-22 19:05:00,78.8,78.2,29.60,WNW,292,0.0,-999.0,98,-99.99,,,0.56,Acu-Link.com,2013-07-22 23:05:00,
2013-07-22 19:20:00,78.8,78.2,29.60,North,0,1.7,-999.0,98,-99.99,,,0.56,Acu-Link.com,2013-07-22 23:20:00,
2013-07-22 19:51:00,77.9,77.3,29.59,North,0,2.2,-999.0,98,-99.99,,,0.57,Acu-Link.com,2013-07-22 23:51:00,
2013-07-22 20:06:00,77.2,76.6,29.59,SSW,202,0.0,-999.0,98,-99.99,,,0.58,Acu-Link.com,2013-07-23 00:06:00,
2013-07-22 20:21:00,76.3,75.7,29.60,SW,225,0.0,-999.0,98,-99.99,,,0.58,Acu-Link.com,2013-07-23 00:21:00,
2013-07-22 20:37:00,75.6,75.0,29.60,SE,135,0.0,-999.0,98,-99.99,,,0.58,Acu-Link.com,2013-07-23 00:37:00,
2013-07-22 20:52:00,75.0,74.4,29.60,West,270,0.0,-999.0,98,-99.99,,,0.58,Acu-Link.com,2013-07-23 00:52:00,
2013-07-22 21:07:00,74.5,73.9,29.60,NNE,22,0.0,-999.0,98,-99.99,,,0.58,Acu-Link.com,2013-07-23 01:07:00,
2013-07-22 21:23:00,74.1,73.5,29.60,SW,225,0.0,-999.0,98,-99.99,,,0.58,Acu-Link.com,2013-07-23 01:23:00,
2013-07-22 21:38:00,73.9,73.3,29.60,West,270,0.0,-999.0,98,-99.99,,,0.60,Acu-Link.com,2013-07-23 01:38:00,
2013-07-22 21:53:00,73.8,73.2,29.61,SW,225,0.0,-999.0,98,-99.99,,,0.64,Acu-Link.com,2013-07-23 01:53:00,
2013-07-22 22:08:00,73.6,73.0,29.61,ENE,67,0.0,-999.0,98,-99.99,,,0.65,Acu-Link.com,2013-07-23 02:08:00,
2013-07-22 22:23:00,73.4,72.8,29.62,SSW,202,0.0,-999.0,98,-99.99,,,0.66,Acu-Link.com,2013-07-23 02:23:00,
2013-07-22 22:38:00,73.4,72.8,29.61,West,270,0.0,-999.0,98,-99.99,,,0.66,Acu-Link.com,2013-07-23 02:38:00,
2013-07-22 22:53:00,73.2,72.6,29.61,SSW,202,0.0,-999.0,98,-99.99,,,0.66,Acu-Link.com,2013-07-23 02:53:00,
2013-07-22 23:09:00,73.2,72.6,29.61,North,0,0.0,-999.0,98,-99.99,,,0.74,Acu-Link.com,2013-07-23 03:09:00,
2013-07-22 23:24:00,73.0,72.4,29.61,ESE,112,1.7,-999.0,98,-99.99,,,1.20,Acu-Link.com,2013-07-23 03:24:00,
2013-07-22 23:39:00,72.9,72.3,29.61,SW,225,0.0,-999.0,98,-99.99,,,1.25,Acu-Link.com,2013-07-23 03:39:00,
2013-07-22 23:55:00,72.7,72.1,29.62,SE,135,2.2,-999.0,98,-99.99,,,1.28,Acu-Link.com,2013-07-23 03:55:00,